This is the latest recevied weather packets stored in our database for station/object BMCB-13. If no packets are shown the sender has not sent any weather packets the latest 10 day(s).
| Time | Temp. | Humidity | Pressure | Rain* | Wind** | Luminosity | Snow |
|---|---|---|---|---|---|---|---|
| 1777555844 | 18.33° C | 26% | 1023.6 hPa | 0 mm | - | 736 W/m² | - |
| 1777551645 | 17.78° C | 29% | 1024.1 hPa | 0 mm | - | 816 W/m² | - |
| 1777551046 | 17.78° C | 30% | 1024.2 hPa | 0 mm | - | 822 W/m² | - |
| 1777543249 | 15.56° C | 36% | 1025.1 hPa | 0 mm | - | 774 W/m² | - |
| 1777542646 | 14.44° C | 35% | 1025.1 hPa | 0 mm | - | 760 W/m² | - |
| 1777542047 | 14.44° C | 35% | 1025.2 hPa | 0 mm | - | 746 W/m² | - |
| 1777540246 | 13.89° C | 35% | 1025.3 hPa | 0 mm | - | 692 W/m² | - |
| 1777539643 | 13.89° C | 37% | 1025.5 hPa | 0 mm | - | 674 W/m² | - |
| 1777537842 | 13.33° C | 38% | 1025.4 hPa | 0 mm | - | 606 W/m² | - |
| 1777534846 | 11.67° C | 40% | 1025.6 hPa | 0 mm | - | 472 W/m² | - |
| 1777530047 | 8.89° C | 46% | 1025.8 hPa | 0 mm | - | 222 W/m² | - |
| 1777525243 | 7.22° C | 51% | 1025.8 hPa | 0 mm | - | 40 W/m² | - |
| 1777521043 | 7.22° C | 51% | 1025.4 hPa | 0 mm | - | 0 W/m² | - |
| 1777509644 | 10° C | 44% | 1025.1 hPa | 0 mm | - | 0 W/m² | - |
| 1777503648 | 11.67° C | 39% | 1024.8 hPa | 0 mm | - | 0 W/m² | - |
| 1777501846 | 12.22° C | 38% | 1024.6 hPa | 0 mm | - | 0 W/m² | - |
| 1777500046 | 12.78° C | 37% | 1024.6 hPa | 0 mm | - | 0 W/m² | - |
| 1777491648 | 14.44° C | 40% | 1023.2 hPa | 0 mm | - | 0 W/m² | - |
| 1777489248 | 15.56° C | 37% | 1022.8 hPa | 0 mm | - | 4 W/m² | - |
| 1777488048 | 16.11° C | 36% | 1022.5 hPa | 0 mm | - | 12 W/m² | - |
| 1777486249 | 17.22° C | 29% | 1022.1 hPa | 0 mm | - | 38 W/m² | - |
| 1777481447 | 18.33° C | 27% | 1021.9 hPa | 0 mm | - | 226 W/m² | - |
| 1777480851 | 18.33° C | 27% | 1021.9 hPa | 0 mm | - | 256 W/m² | - |
| 1777480245 | 18.33° C | 26% | 1021.9 hPa | 0 mm | - | 286 W/m² | - |
| 1777475445 | 18.89° C | 29% | 1021.9 hPa | 0 mm | - | 512 W/m² | - |
* Rain latest hour (hover to see other rain measurements)
** Current wind speed in m/s (hover to see current wind gust speed)